Huvudsida
METAR-TAF:

METAR-TAF

Flygplatser :

Valencias flygplats

Valencia, Spanien

latitud: 39-30N, longitud: 000-28W, höjd: 69 m

Aktuellt väderrapport

Denna rapport gjordes för 18 minuter sedan, klockan 05:30 UTC
Vind 3 kt från väst/sydväst
Temperatur 22°C
Fuktighet 60%
Tryck 1019 hPa
Sikt 10 km eller mer
Inga moln under 1 500 m eller inga cumulonimbus

METAR: LEVC 230530Z 25003KT CAVOK 22/14 Q1019 NOSIG

Tid: 07:48 (05:48 UTC)

Väderprognos

Denna rapport gjordes för 6 timmar och 48 minuter sedan, klockan 23:00 UTC
Prognos gäller från 23 kl. 00 UTC till 23 kl. 24 UTC
Vind 3 kt varierande vindriktning
Sikt 10 km eller mer
Få moln på en höjd av 2500 ft
Blir
från 23 kl. 10 UTC till 23 kl. 12 UTC
Vind 10 kt från ost/sydost
Blir
från 23 kl. 18 UTC till 23 kl. 21 UTC
Vind 4 kt varierande vindriktning

TAF: LEVC 222300Z 2300/2324 VRB03KT 9999 FEW025 TX34/2313Z TN21/2305Z BECMG 2310/2312 12010KT BECMG 2318/2321 VRB04KT

Aktuella väderrapporter och prognoser från 4000 flygplatser (METAR- och TAF-rapporter).

De tillgängliga stationerna syns som gula och röda prickar på kartan.

För musen över prickarna för att se namnen på stationerna.

Klicka sedan för att få väderrapporter och prognoser.

För att ändra kartan: Klicka på de gröna knapparna med ett svart kors på för att zooma in; den gröna knappen med ett streck på för att zooma ut; eller på de gröna pilarna för angränsande kartor.


METAR-TAF: